Time;durP1;ratioP1;P1;durP2;ratioP2;P2;SDS_P1;SDS_P2;PMS_P1;PMS_P2;Temp;Humidity;BMP_temperature;BMP_pressure;BME280_temperature;BME280_humidity;BME280_pressure;Samples;Min_cycle;Max_cycle;Signal;HPM_P1;HPM_P2
2022/10/29 00:01:20;;;;;;;39.17;35.23;;;;;;;14.12;100.00;101867.28;5072898;28;20460;-48
2022/10/29 00:03:48;;;;;;;50.63;37.03;;;;;;;14.05;100.00;101872.56;5072671;28;20485;-46
2022/10/29 00:06:15;;;;;;;38.77;34.47;;;;;;;13.95;100.00;101868.56;5072632;28;20810;-46
2022/10/29 00:08:43;;;;;;;40.43;35.83;;;;;;;13.88;100.00;101873.03;5072116;28;20869;-46
2022/10/29 00:11:13;;;;;;;40.17;35.90;;;;;;;13.79;100.00;101873.16;5072404;28;20426;-47
2022/10/29 00:13:42;;;;;;;39.53;35.60;;;;;;;13.74;100.00;101880.06;5072294;28;20492;-45
2022/10/29 00:16:11;;;;;;;40.60;36.43;;;;;;;13.68;100.00;101880.84;5072096;28;20495;-50
2022/10/29 00:18:40;;;;;;;40.00;35.93;;;;;;;13.63;100.00;101885.94;5072003;28;20462;-45
2022/10/29 00:21:11;;;;;;;46.53;35.93;;;;;;;13.57;100.00;101886.69;5069137;28;20426;-46
2022/10/29 00:23:39;;;;;;;40.40;36.20;;;;;;;13.52;100.00;101887.28;5072553;28;20580;-45
2022/10/29 00:26:07;;;;;;;39.10;35.63;;;;;;;13.48;100.00;101880.63;5072141;28;20499;-48
2022/10/29 00:28:34;;;;;;;39.87;35.70;;;;;;;13.43;100.00;101876.84;5071806;28;20462;-45
2022/10/29 00:31:03;;;;;;;39.57;35.20;;;;;;;13.37;100.00;101873.06;5071993;28;20923;-46
2022/10/29 00:33:31;;;;;;;39.23;34.33;;;;;;;13.32;100.00;101880.81;5072509;28;20430;-46
2022/10/29 00:36:02;;;;;;;37.20;33.50;;;;;;;13.27;100.00;101888.59;5072276;28;20438;-46
2022/10/29 00:38:30;;;;;;;47.57;36.53;;;;;;;13.23;100.00;101895.34;5071697;28;20466;-45
2022/10/29 00:40:58;;;;;;;37.70;34.13;;;;;;;13.16;100.00;101897.09;5072061;28;20487;-49
2022/10/29 00:43:27;;;;;;;42.20;34.27;;;;;;;13.10;100.00;101898.69;5072088;28;20533;-47
2022/10/29 00:45:58;;;;;;;36.80;33.60;;;;;;;13.04;100.00;101903.91;5071753;28;20993;-48
2022/10/29 00:48:29;;;;;;;38.00;34.03;;;;;;;13.00;100.00;101902.59;5071646;28;20462;-48
2022/10/29 00:50:58;;;;;;;43.83;34.20;;;;;;;12.94;100.00;101895.31;5072127;28;20826;-46
2022/10/29 00:53:30;;;;;;;38.70;34.30;;;;;;;12.88;100.00;101902.22;5071795;28;20435;-45
2022/10/29 00:55:59;;;;;;;39.43;33.63;;;;;;;12.83;100.00;101895.75;5072072;28;20468;-46
2022/10/29 00:58:28;;;;;;;45.77;35.40;;;;;;;12.80;100.00;101901.47;5071388;28;20458;-48
2022/10/29 01:00:56;;;;;;;38.97;35.03;;;;;;;12.76;100.00;101912.56;5071688;28;20800;-48
2022/10/29 01:03:23;;;;;;;36.80;32.90;;;;;;;12.72;100.00;101905.09;5071918;28;20495;-50
2022/10/29 01:05:52;;;;;;;40.10;33.70;;;;;;;12.66;100.00;101914.66;5071885;28;20426;-46
2022/10/29 01:08:21;;;;;;;37.53;33.63;;;;;;;12.61;100.00;101918.88;5071351;28;20462;-48
2022/10/29 01:10:59;;;;;;;35.87;32.23;;;;;;;12.55;100.00;101920.44;5071566;28;20430;-51
2022/10/29 01:13:45;;;;;;;36.97;33.03;;;;;;;12.49;100.00;101923.00;5071762;28;20430;-48
2022/10/29 01:16:27;;;;;;;43.10;34.13;;;;;;;12.45;100.00;101927.91;5071758;28;20480;-45
2022/10/29 01:19:05;;;;;;;37.80;34.37;;;;;;;12.42;100.00;101917.56;5071102;28;20523;-45
2022/10/29 01:21:42;;;;;;;36.73;33.00;;;;;;;12.37;100.00;101919.94;5068307;28;20444;-48
2022/10/29 01:24:46;;;;;;;37.03;33.03;;;;;;;12.32;100.00;101916.97;5071326;28;20473;-47
2022/10/29 01:27:56;;;;;;;37.90;34.00;;;;;;;12.28;100.00;101925.50;5072327;28;20507;-48
2022/10/29 01:30:49;;;;;;;35.93;32.17;;;;;;;12.24;100.00;101922.38;5075677;28;20411;-45
2022/10/29 01:33:25;;;;;;;35.43;32.60;;;;;;;12.21;100.00;101923.56;5072783;28;20495;-48
2022/10/29 01:35:59;;;;;;;36.37;32.77;;;;;;;12.18;100.00;101923.09;5075717;28;20472;-47
2022/10/29 01:38:34;;;;;;;37.63;33.90;;;;;;;12.14;100.00;101924.47;5074997;28;20457;-48
2022/10/29 01:41:09;;;;;;;35.90;32.50;;;;;;;12.12;100.00;101939.84;5075465;28;20459;-48
2022/10/29 01:43:41;;;;;;;38.37;33.53;;;;;;;12.09;100.00;101937.53;5075457;28;20519;-47
2022/10/29 01:46:12;;;;;;;36.77;32.93;;;;;;;12.06;100.00;101933.38;5075075;28;20979;-48
2022/10/29 01:48:45;;;;;;;37.17;33.17;;;;;;;12.05;100.00;101934.38;5074785;28;20457;-45
2022/10/29 01:51:20;;;;;;;36.40;32.70;;;;;;;12.02;100.00;101934.72;5074947;28;20431;-46
2022/10/29 01:53:48;;;;;;;37.43;32.87;;;;;;;11.99;100.00;101943.09;5075285;28;20428;-46
2022/10/29 01:56:16;;;;;;;35.47;31.93;;;;;;;11.96;100.00;101953.31;5075088;28;20483;-47
2022/10/29 01:58:47;;;;;;;36.23;32.73;;;;;;;11.94;100.00;101956.19;5074542;28;20809;-47
2022/10/29 02:01:29;;;;;;;36.77;32.90;;;;;;;11.91;100.00;101945.84;5075152;28;20418;-49
2022/10/29 02:04:07;;;;;;;36.70;32.77;;;;;;;11.89;100.00;101952.34;5074975;28;20458;-46
2022/10/29 02:06:45;;;;;;;36.50;33.33;;;;;;;11.85;100.00;101956.41;5074980;28;20487;-47
2022/10/29 02:09:16;;;;;;;36.50;32.60;;;;;;;11.81;100.00;101937.19;5074901;28;20468;-48
2022/10/29 02:11:51;;;;;;;36.10;32.47;;;;;;;11.79;100.00;101931.22;5074877;28;20978;-51
2022/10/29 02:14:25;;;;;;;41.70;33.60;;;;;;;11.74;100.00;101932.75;5074561;28;20434;-51
2022/10/29 02:16:55;;;;;;;36.73;33.17;;;;;;;11.70;100.00;101923.41;5074220;28;20500;-46
2022/10/29 02:19:23;;;;;;;36.33;32.80;;;;;;;11.65;100.00;101927.38;5074520;28;20992;-46
2022/10/29 02:21:51;;;;;;;36.23;33.13;;;;;;;11.60;100.00;101926.25;5070839;28;20928;-49
2022/10/29 02:24:19;;;;;;;36.27;32.80;;;;;;;11.55;100.00;101933.97;5034521;28;20904;-50
2022/10/29 02:26:46;;;;;;;35.27;31.60;;;;;;;11.49;100.00;101932.81;5033883;28;20455;-50
2022/10/29 02:29:14;;;;;;;36.00;32.70;;;;;;;11.46;100.00;101943.84;5034749;28;20436;-48
2022/10/29 02:31:41;;;;;;;37.40;33.30;;;;;;;11.42;100.00;101939.03;5034501;28;20440;-51
2022/10/29 02:34:09;;;;;;;35.20;32.00;;;;;;;11.38;100.00;101930.50;5034453;28;20949;-47
2022/10/29 02:36:38;;;;;;;35.33;32.47;;;;;;;11.36;100.00;101929.88;5033994;28;20972;-47
2022/10/29 02:39:05;;;;;;;37.43;32.73;;;;;;;11.35;100.00;101930.84;5034019;28;20486;-47
2022/10/29 02:41:33;;;;;;;36.07;32.63;;;;;;;11.33;100.00;101921.34;5034039;28;20436;-48
2022/10/29 02:44:00;;;;;;;36.13;33.20;;;;;;;11.31;100.00;101915.38;5034366;28;20468;-48
2022/10/29 02:46:29;;;;;;;36.57;33.67;;;;;;;11.29;100.00;101909.38;5034008;28;20463;-46
2022/10/29 02:48:56;;;;;;;38.83;35.13;;;;;;;11.30;100.00;101916.38;5033710;28;20468;-50
2022/10/29 02:51:24;;;;;;;36.43;33.50;;;;;;;11.29;100.00;101906.72;5033829;28;20486;-51
2022/10/29 02:53:53;;;;;;;37.67;34.27;;;;;;;11.29;100.00;101910.19;5033922;28;20432;-50
2022/10/29 02:56:21;;;;;;;37.67;34.67;;;;;;;11.29;100.00;101912.84;5034181;28;20456;-53
2022/10/29 02:58:48;;;;;;;39.63;36.13;;;;;;;11.29;100.00;101920.88;5033666;28;20517;-49
2022/10/29 03:01:16;;;;;;;36.60;33.33;;;;;;;11.30;100.00;101903.84;5033622;28;20436;-46
2022/10/29 03:03:44;;;;;;;38.23;34.63;;;;;;;11.30;100.00;101906.53;5033815;28;20518;-51
2022/10/29 03:06:16;;;;;;;37.27;34.30;;;;;;;11.31;100.00;101897.50;5033725;28;20452;-46
2022/10/29 03:08:43;;;;;;;35.47;32.80;;;;;;;11.30;100.00;101893.16;5033320;28;20814;-50
2022/10/29 03:11:13;;;;;;;37.10;33.70;;;;;;;11.30;100.00;101895.84;5033470;28;20436;-45
2022/10/29 03:13:40;;;;;;;36.23;33.43;;;;;;;11.28;100.00;101892.50;5033722;28;20783;-48
2022/10/29 03:16:09;;;;;;;39.40;35.50;;;;;;;11.27;100.00;101900.69;5033664;28;20787;-50
2022/10/29 03:18:36;;;;;;;36.80;33.80;;;;;;;11.24;100.00;101907.22;5033195;28;20464;-49
2022/10/29 03:21:04;;;;;;;35.47;32.77;;;;;;;11.22;100.00;101917.25;5054521;28;20920;-47
2022/10/29 03:23:32;;;;;;;35.97;33.50;;;;;;;11.19;100.00;101914.91;5053531;28;20673;-47
2022/10/29 03:25:59;;;;;;;35.23;32.37;;;;;;;11.14;100.00;101906.56;5053320;28;20471;-48
2022/10/29 03:28:29;;;;;;;36.27;32.90;;;;;;;11.08;100.00;101897.41;5053109;28;20529;-50
2022/10/29 03:30:57;;;;;;;38.43;35.10;;;;;;;11.06;100.00;101898.59;5053123;28;20435;-47
2022/10/29 03:33:25;;;;;;;37.70;34.07;;;;;;;11.00;100.00;101915.28;5053198;28;20435;-49
2022/10/29 03:35:57;;;;;;;37.40;34.43;;;;;;;10.95;100.00;101915.81;5053446;28;20497;-46
2022/10/29 03:38:25;;;;;;;38.20;34.80;;;;;;;10.92;100.00;101916.16;5052750;28;20844;-47
2022/10/29 03:40:53;;;;;;;37.60;34.77;;;;;;;10.91;100.00;101916.31;5052972;28;20435;-50
2022/10/29 03:43:21;;;;;;;36.47;33.80;;;;;;;10.90;100.00;101918.13;5053259;28;20481;-48
2022/10/29 03:45:54;;;;;;;38.93;34.80;;;;;;;10.91;100.00;101910.97;5052834;28;20478;-48
2022/10/29 03:48:23;;;;;;;38.07;34.90;;;;;;;10.90;100.00;101914.66;5052655;28;20532;-48
2022/10/29 03:50:55;;;;;;;41.27;36.40;;;;;;;10.89;100.00;101919.16;5052208;28;20513;-50
2022/10/29 03:53:23;;;;;;;38.83;34.57;;;;;;;10.86;100.00;101914.16;5052989;28;20493;-51
2022/10/29 03:55:51;;;;;;;39.03;34.93;;;;;;;10.84;100.00;101918.00;5052831;28;20501;-49
2022/10/29 03:58:19;;;;;;;40.30;35.40;;;;;;;10.81;100.00;101916.50;5052568;28;20808;-51
2022/10/29 04:00:55;;;;;;;37.10;34.20;;;;;;;10.78;100.00;101927.50;5052651;28;20557;-52
2022/10/29 04:03:22;;;;;;;38.40;35.10;;;;;;;10.77;100.00;101925.03;5052821;28;20802;-48
2022/10/29 04:05:50;;;;;;;36.37;33.43;;;;;;;10.73;100.00;101931.69;5052544;28;20471;-51
2022/10/29 04:08:18;;;;;;;39.00;35.30;;;;;;;10.71;100.00;101941.69;5052071;28;20462;-51
2022/10/29 04:10:46;;;;;;;39.00;35.20;;;;;;;10.68;100.00;101953.53;5052314;28;20435;-48
2022/10/29 04:13:14;;;;;;;36.27;32.97;;;;;;;10.64;100.00;101965.53;5052801;28;20501;-50
2022/10/29 04:15:42;;;;;;;37.60;34.40;;;;;;;10.61;100.00;101973.03;5052717;28;20435;-49
2022/10/29 04:18:11;;;;;;;38.03;34.80;;;;;;;10.57;100.00;101963.72;5052161;28;21007;-50
2022/10/29 04:20:40;;;;;;;39.17;35.77;;;;;;;10.52;100.00;101961.53;5049277;28;20477;-51
2022/10/29 04:23:28;;;;;;;39.07;35.30;;;;;;;10.48;100.00;101949.56;5065243;28;20461;-48
2022/10/29 04:26:16;;;;;;;39.67;35.60;;;;;;;10.43;100.00;101926.03;5072006;28;20513;-52
2022/10/29 04:29:04;;;;;;;39.10;35.47;;;;;;;10.38;100.00;101928.38;5071909;28;20478;-48
2022/10/29 04:31:31;;;;;;;37.67;34.73;;;;;;;10.36;100.00;101940.22;5072167;28;20484;-47
2022/10/29 04:34:00;;;;;;;39.73;35.67;;;;;;;10.32;100.00;101952.19;5071977;28;20483;-48
2022/10/29 04:36:28;;;;;;;40.73;37.20;;;;;;;10.29;100.00;101950.72;5072182;28;20442;-48
2022/10/29 04:38:56;;;;;;;42.43;38.43;;;;;;;10.27;100.00;101955.38;5071799;28;20543;-47
2022/10/29 04:41:23;;;;;;;43.63;39.77;;;;;;;10.25;100.00;101952.03;5071812;28;21000;-49
2022/10/29 04:43:51;;;;;;;36.63;33.93;;;;;;;10.25;100.00;101967.19;5071926;28;20957;-46
2022/10/29 04:46:18;;;;;;;39.10;36.00;;;;;;;10.23;100.00;101980.69;5072022;28;20536;-46
2022/10/29 04:48:46;;;;;;;38.87;34.97;;;;;;;10.22;100.00;101978.16;5070632;28;20523;-51
2022/10/29 04:51:19;;;;;;;37.77;34.80;;;;;;;10.20;100.00;101975.69;5071524;28;20503;-52
2022/10/29 04:53:47;;;;;;;39.77;35.70;;;;;;;10.19;100.00;101983.84;5071976;28;20484;-47
2022/10/29 04:56:15;;;;;;;38.30;34.80;;;;;;;10.15;100.00;101996.69;5071745;28;20499;-46
2022/10/29 04:58:42;;;;;;;38.07;35.00;;;;;;;10.13;100.00;101990.66;5071353;28;20466;-45
2022/10/29 05:01:10;;;;;;;37.50;34.60;;;;;;;10.09;100.00;102002.63;5070847;28;20438;-46
2022/10/29 05:03:38;;;;;;;38.30;34.80;;;;;;;10.06;100.00;102000.28;5071315;28;20442;-48
2022/10/29 05:06:06;;;;;;;36.10;32.70;;;;;;;10.01;100.00;101998.09;5066837;28;20471;-46
2022/10/29 05:08:35;;;;;;;37.60;33.80;;;;;;;9.97;100.00;102011.91;5050990;28;20451;-48
2022/10/29 05:11:04;;;;;;;36.23;33.50;;;;;;;9.93;100.00;101999.91;5051254;28;20934;-48
2022/10/29 05:13:32;;;;;;;35.00;32.53;;;;;;;9.88;100.00;101995.06;5051647;28;20789;-50
2022/10/29 05:16:00;;;;;;;33.93;31.00;;;;;;;9.82;100.00;102000.22;5051560;28;20489;-51
2022/10/29 05:18:27;;;;;;;33.20;31.13;;;;;;;9.77;100.00;101990.00;5050600;28;20462;-47
2022/10/29 05:20:56;;;;;;;35.80;32.07;;;;;;;9.74;100.00;101993.00;5048049;28;20427;-45
2022/10/29 05:23:23;;;;;;;35.37;32.60;;;;;;;9.71;100.00;101988.00;5059099;28;20431;-45
2022/10/29 05:25:55;;;;;;;35.97;33.13;;;;;;;9.70;100.00;101989.00;5051258;28;20669;-47
2022/10/29 05:28:24;;;;;;;34.57;32.10;;;;;;;9.68;100.00;101984.81;5057874;28;20455;-51
2022/10/29 05:30:53;;;;;;;35.23;32.87;;;;;;;9.68;100.00;101979.47;5067535;28;20481;-50
2022/10/29 05:33:22;;;;;;;33.50;31.20;;;;;;;9.66;100.00;101971.66;5071217;28;20426;-48
2022/10/29 05:35:50;;;;;;;35.27;32.83;;;;;;;9.64;100.00;101971.00;5071361;28;20473;-46
2022/10/29 05:38:18;;;;;;;36.70;33.20;;;;;;;9.62;100.00;101966.81;5070861;28;20447;-46
2022/10/29 05:40:46;;;;;;;34.33;32.20;;;;;;;9.57;100.00;101969.97;5070762;28;20854;-45
2022/10/29 05:43:16;;;;;;;36.90;33.77;;;;;;;9.55;100.00;101965.81;5071047;28;20468;-45
2022/10/29 05:45:45;;;;;;;36.13;33.57;;;;;;;9.52;100.00;101977.63;5070516;28;20474;-45
2022/10/29 05:48:13;;;;;;;34.83;31.93;;;;;;;9.51;100.00;101980.41;5070674;28;20463;-46
2022/10/29 05:50:40;;;;;;;35.77;32.70;;;;;;;9.48;100.00;101978.91;5071003;28;20427;-47
2022/10/29 05:53:11;;;;;;;35.10;32.53;;;;;;;9.48;100.00;101978.06;5070824;28;20439;-51
2022/10/29 05:55:39;;;;;;;35.70;32.50;;;;;;;9.43;100.00;101971.41;5071286;28;20427;-48
2022/10/29 05:58:10;;;;;;;35.67;32.97;;;;;;;9.44;100.00;101972.22;5070667;28;20477;-51
2022/10/29 06:00:41;;;;;;;36.13;33.33;;;;;;;9.43;100.00;101962.59;5070612;28;20411;-47
2022/10/29 06:03:12;;;;;;;36.90;33.50;;;;;;;9.43;100.00;101952.78;5070881;28;20485;-48
2022/10/29 06:05:40;;;;;;;35.47;33.07;;;;;;;9.45;100.00;101955.25;5071440;28;20532;-47
2022/10/29 06:08:08;;;;;;;37.13;34.50;;;;;;;9.47;100.00;101963.13;5059879;28;20852;-46
2022/10/29 06:10:36;;;;;;;36.60;33.70;;;;;;;9.47;100.00;101968.44;5051007;28;20778;-47
2022/10/29 06:13:10;;;;;;;39.10;36.10;;;;;;;9.48;100.00;101983.41;5051847;28;20419;-45
2022/10/29 06:15:39;;;;;;;37.13;33.87;;;;;;;9.45;100.00;101987.22;5054416;28;20521;-45
2022/10/29 06:18:07;;;;;;;37.03;33.93;;;;;;;9.47;100.00;101982.56;5053802;28;20482;-46
2022/10/29 06:20:36;;;;;;;38.10;34.87;;;;;;;9.48;100.00;101980.75;5051501;28;20420;-50
2022/10/29 06:23:04;;;;;;;38.37;35.03;;;;;;;9.48;100.00;101986.06;5054619;28;20480;-46
2022/10/29 06:25:32;;;;;;;38.13;35.00;;;;;;;9.51;100.00;101988.41;5054581;28;20848;-48
2022/10/29 06:28:01;;;;;;;38.93;36.03;;;;;;;9.52;100.00;101998.91;5053992;28;20471;-52
2022/10/29 06:30:30;;;;;;;38.23;34.83;;;;;;;9.55;100.00;101990.59;5054001;28;20792;-47
2022/10/29 06:32:59;;;;;;;37.93;34.43;;;;;;;9.59;100.00;101989.28;5054248;28;20477;-47
2022/10/29 06:35:27;;;;;;;37.87;35.10;;;;;;;9.63;100.00;102003.94;5054094;28;20493;-50
2022/10/29 06:37:55;;;;;;;36.17;33.20;;;;;;;9.68;100.00;102003.47;5053954;28;20478;-51
2022/10/29 06:40:23;;;;;;;36.23;33.47;;;;;;;9.72;100.00;101999.50;5054173;28;20816;-47
2022/10/29 06:42:58;;;;;;;36.70;33.97;;;;;;;9.78;100.00;101994.34;5054248;28;20438;-45
2022/10/29 06:45:26;;;;;;;36.27;34.17;;;;;;;9.85;100.00;101999.88;5054106;28;20480;-48
2022/10/29 06:47:53;;;;;;;38.83;35.20;;;;;;;9.89;100.00;102002.06;5053806;28;20544;-49
2022/10/29 06:50:23;;;;;;;39.47;36.33;;;;;;;9.94;100.00;101996.25;5044733;28;20427;-46
2022/10/29 06:52:55;;;;;;;36.50;34.20;;;;;;;10.01;100.00;102013.25;5053945;28;20482;-52
2022/10/29 06:55:23;;;;;;;36.07;33.83;;;;;;;10.09;100.00;101999.13;5053683;28;20431;-48
2022/10/29 06:57:57;;;;;;;40.10;35.93;;;;;;;10.17;100.00;101993.84;5053035;28;20479;-46
2022/10/29 07:00:25;;;;;;;38.63;35.63;;;;;;;10.25;100.00;102004.50;5053790;28;20846;-47
2022/10/29 07:02:52;;;;;;;37.73;34.40;;;;;;;10.32;100.00;102006.38;5053413;28;20439;-46
2022/10/29 07:05:21;;;;;;;38.97;35.60;;;;;;;10.40;100.00;102003.69;5053464;28;20944;-48
2022/10/29 07:07:55;;;;;;;38.63;35.63;;;;;;;10.48;100.00;101993.03;5052866;28;20992;-46
2022/10/29 07:10:23;;;;;;;43.53;37.40;;;;;;;10.57;100.00;102000.03;5053301;28;20431;-49
2022/10/29 07:12:51;;;;;;;39.43;36.80;;;;;;;10.69;100.00;102003.25;5052736;28;20965;-48
2022/10/29 07:15:19;;;;;;;38.90;36.03;;;;;;;10.79;100.00;102009.22;5053090;28;20948;-48
2022/10/29 07:17:58;;;;;;;39.10;36.30;;;;;;;10.90;100.00;102016.06;5053040;28;20467;-46
2022/10/29 07:20:26;;;;;;;38.47;35.27;;;;;;;10.99;100.00;102012.41;5057942;28;20480;-50
2022/10/29 07:22:56;;;;;;;39.20;36.20;;;;;;;11.09;100.00;102013.88;5064232;28;20512;-46
2022/10/29 07:25:24;;;;;;;40.07;37.10;;;;;;;11.18;100.00;102005.84;5071918;28;20927;-46
2022/10/29 07:27:51;;;;;;;41.33;38.23;;;;;;;11.25;100.00;102014.84;5072506;28;20466;-46
2022/10/29 07:30:20;;;;;;;41.23;37.70;;;;;;;11.27;100.00;102007.50;5073418;28;20469;-46
2022/10/29 07:32:47;;;;;;;39.40;36.73;;;;;;;11.33;100.00;102006.81;5073032;28;20484;-49
2022/10/29 07:35:15;;;;;;;42.80;39.30;;;;;;;11.40;100.00;101997.97;5073037;28;20422;-48
2022/10/29 07:37:42;;;;;;;39.40;36.50;;;;;;;11.50;100.00;102000.41;5072763;28;20470;-50
2022/10/29 07:40:13;;;;;;;40.43;37.30;;;;;;;11.62;100.00;102012.41;5073436;28;20515;-46
2022/10/29 07:42:40;;;;;;;39.90;37.17;;;;;;;11.68;100.00;102002.88;5072812;28;20437;-48
2022/10/29 07:45:09;;;;;;;39.50;36.23;;;;;;;11.74;100.00;102000.34;5073038;28;20426;-48
2022/10/29 07:47:36;;;;;;;39.70;36.83;;;;;;;11.82;100.00;102008.38;5063659;28;20470;-50
2022/10/29 07:50:05;;;;;;;38.50;36.00;;;;;;;11.88;100.00;102015.69;5060784;28;20435;-50
2022/10/29 07:52:32;;;;;;;39.33;36.40;;;;;;;11.94;100.00;102017.66;5064186;28;20488;-52
2022/10/29 07:55:01;;;;;;;38.63;35.73;;;;;;;12.02;100.00;102019.44;5052003;28;20431;-51
2022/10/29 07:57:30;;;;;;;39.40;36.43;;;;;;;12.14;100.00;102029.59;5051944;28;20505;-49
2022/10/29 07:59:58;;;;;;;40.50;37.00;;;;;;;12.29;100.00;102027.00;5070412;28;20430;-47
2022/10/29 08:02:26;;;;;;;38.63;35.43;;;;;;;12.45;100.00;102040.28;5066425;28;20438;-47
2022/10/29 08:04:53;;;;;;;38.43;35.30;;;;;;;12.62;100.00;102036.47;5051313;28;20436;-47
2022/10/29 08:07:21;;;;;;;37.30;34.83;;;;;;;12.80;100.00;102035.31;5051868;28;20475;-49
2022/10/29 08:09:48;;;;;;;36.67;33.10;;;;;;;12.98;100.00;102051.91;5051141;28;20435;-46
2022/10/29 08:12:16;;;;;;;36.87;33.83;;;;;;;13.17;100.00;102046.09;5051610;28;20439;-46
2022/10/29 08:14:45;;;;;;;35.63;33.43;;;;;;;13.28;100.00;102042.97;5068777;28;20434;-45
2022/10/29 08:17:12;;;;;;;36.17;32.83;;;;;;;13.34;100.00;102036.88;5071372;28;20486;-50
2022/10/29 08:19:40;;;;;;;34.20;31.73;;;;;;;13.42;100.00;102047.50;5052413;28;20431;-46
2022/10/29 08:22:08;;;;;;;35.13;32.30;;;;;;;13.46;100.00;102046.13;5057742;28;20859;-48
2022/10/29 08:24:35;;;;;;;34.87;32.27;;;;;;;13.51;100.00;102048.25;5051152;28;20944;-46
2022/10/29 08:27:03;;;;;;;36.97;34.20;;;;;;;13.55;100.00;102046.88;5051214;28;20485;-49
2022/10/29 08:29:30;;;;;;;36.23;33.60;;;;;;;13.60;100.00;102039.94;5064675;28;20988;-47
2022/10/29 08:31:59;;;;;;;35.10;32.43;;;;;;;13.67;100.00;102035.50;5059539;28;20464;-49
2022/10/29 08:34:27;;;;;;;36.63;33.93;;;;;;;13.72;100.00;102033.09;5051699;28;20427;-51
2022/10/29 08:36:54;;;;;;;37.60;34.87;;;;;;;13.78;100.00;102031.50;5062802;28;20705;-46
2022/10/29 08:39:22;;;;;;;37.90;34.57;;;;;;;13.86;100.00;102036.75;5067030;28;20431;-46
2022/10/29 08:42:00;;;;;;;39.80;36.13;;;;;;;13.88;100.00;102025.88;5049700;28;20451;-46
2022/10/29 08:44:59;;;;;;;41.87;38.47;;;;;;;13.94;100.00;102025.97;5047016;28;20481;-50
2022/10/29 08:47:30;;;;;;;42.10;38.73;;;;;;;14.05;100.00;102030.00;5025260;28;20856;-48
2022/10/29 08:50:04;;;;;;;44.17;39.80;;;;;;;14.09;100.00;102033.97;5050130;28;20465;-46
2022/10/29 08:52:37;;;;;;;45.37;41.60;;;;;;;14.16;100.00;102033.00;5059094;28;20515;-45
2022/10/29 08:55:18;;;;;;;43.37;40.20;;;;;;;14.24;100.00;102038.28;5051402;28;20426;-49
2022/10/29 08:57:51;;;;;;;43.67;40.30;;;;;;;14.34;100.00;102040.69;5051312;28;20463;-53
2022/10/29 09:00:22;;;;;;;43.57;40.17;;;;;;;14.39;100.00;102046.31;5062964;28;20441;-46
2022/10/29 09:02:56;;;;;;;45.03;41.57;;;;;;;14.46;100.00;102047.22;5066815;28;20460;-46
2022/10/29 09:05:30;;;;;;;42.87;39.37;;;;;;;14.51;100.00;102044.81;5063976;28;20453;-49
2022/10/29 09:08:15;;;;;;;43.30;40.40;;;;;;;14.62;100.00;102030.03;5050327;28;20483;-47
2022/10/29 09:10:51;;;;;;;44.77;41.53;;;;;;;14.67;100.00;102030.28;5061985;28;20426;-46
2022/10/29 09:13:31;;;;;;;44.60;41.10;;;;;;;14.68;100.00;102022.06;5054858;28;21036;-49
2022/10/29 09:16:10;;;;;;;42.63;39.40;;;;;;;14.76;100.00;102016.53;5058474;28;20427;-48
2022/10/29 09:19:10;;;;;;;42.00;39.00;;;;;;;14.79;100.00;102009.94;5050539;28;20467;-52
2022/10/29 09:21:44;;;;;;;41.40;38.13;;;;;;;14.80;100.00;102007.09;5058462;28;20439;-51
2022/10/29 09:24:15;;;;;;;41.53;38.70;;;;;;;14.78;100.00;101976.06;5070362;28;20434;-47
2022/10/29 09:26:57;;;;;;;41.27;38.47;;;;;;;14.80;100.00;101990.13;5071092;28;20450;-47
2022/10/29 09:29:54;;;;;;;41.57;38.90;;;;;;;14.77;100.00;101995.88;5071436;28;20426;-52
2022/10/29 09:32:26;;;;;;;39.40;36.60;;;;;;;14.69;100.00;101988.81;5070717;28;21013;-48
2022/10/29 09:35:00;;;;;;;40.10;36.80;;;;;;;14.71;100.00;101997.50;5071503;28;20948;-51
2022/10/29 09:37:43;;;;;;;38.77;36.07;;;;;;;14.82;100.00;101996.13;5070579;28;20508;-51
2022/10/29 09:40:24;;;;;;;38.27;35.97;;;;;;;14.70;100.00;101987.78;5071291;28;20464;-47
2022/10/29 09:42:52;;;;;;;40.03;37.63;;;;;;;14.69;100.00;101985.28;5071102;28;20464;-53
2022/10/29 09:45:26;;;;;;;41.40;38.57;;;;;;;14.67;100.00;101981.94;5071409;28;20434;-48
2022/10/29 09:48:01;;;;;;;40.30;37.70;;;;;;;14.75;100.00;101974.63;5071388;28;20474;-46
2022/10/29 09:50:40;;;;;;;39.40;36.87;;;;;;;14.78;100.00;101963.47;5074716;28;20830;-47
2022/10/29 09:53:08;;;;;;;41.70;38.80;;;;;;;14.95;100.00;101953.28;5075275;28;20438;-48
2022/10/29 09:55:41;;;;;;;40.87;38.20;;;;;;;15.03;100.00;101974.59;5075290;28;20427;-50
2022/10/29 09:58:18;;;;;;;43.13;40.07;;;;;;;15.07;100.00;101991.16;5074530;28;20508;-47
2022/10/29 10:00:46;;;;;;;43.73;40.60;;;;;;;15.16;100.00;101990.81;5075178;28;20487;-52
2022/10/29 10:03:19;;;;;;;43.33;40.47;;;;;;;15.34;100.00;101991.16;5074952;28;20430;-49
2022/10/29 10:05:59;;;;;;;43.90;41.00;;;;;;;15.34;100.00;101974.19;5074636;28;20430;-53
2022/10/29 10:08:27;;;;;;;43.33;40.03;;;;;;;15.36;100.00;101969.44;5074333;28;20470;-49
2022/10/29 10:10:56;;;;;;;41.53;38.87;;;;;;;15.40;100.00;101974.25;5074641;28;20430;-46
2022/10/29 10:13:26;;;;;;;41.77;39.07;;;;;;;15.47;100.00;101988.56;5074580;28;20482;-50
2022/10/29 10:15:56;;;;;;;42.80;39.70;;;;;;;15.45;100.00;101989.75;5074892;28;20430;-49
2022/10/29 10:18:26;;;;;;;43.03;40.03;;;;;;;15.40;100.00;101976.09;5074102;28;20458;-54
2022/10/29 10:21:07;;;;;;;45.13;41.97;;;;;;;15.36;100.00;101977.50;5070425;28;20854;-49
2022/10/29 10:23:45;;;;;;;47.10;43.80;;;;;;;15.32;100.00;101981.63;5068666;28;20441;-50
2022/10/29 10:26:33;;;;;;;44.43;41.33;;;;;;;15.30;100.00;101976.44;5074442;28;21117;-50
2022/10/29 10:29:06;;;;;;;44.37;41.30;;;;;;;15.44;100.00;101980.06;5073885;28;20991;-50
2022/10/29 10:31:34;;;;;;;47.90;44.40;;;;;;;15.50;100.00;101995.44;5074620;28;20434;-49
2022/10/29 10:34:09;;;;;;;43.30;40.37;;;;;;;15.62;100.00;101987.63;5073920;28;20488;-52
2022/10/29 10:36:42;;;;;;;44.40;41.00;;;;;;;15.83;100.00;101996.38;5073783;28;20453;-48
2022/10/29 10:39:21;;;;;;;43.13;40.33;;;;;;;16.10;100.00;101983.06;5074255;28;20993;-52
2022/10/29 10:41:50;;;;;;;43.03;40.10;;;;;;;16.25;100.00;101986.38;5074161;28;20437;-48
2022/10/29 10:44:20;;;;;;;42.20;39.50;;;;;;;16.40;100.00;101982.47;5074351;28;20480;-47
2022/10/29 10:46:51;;;;;;;43.93;40.83;;;;;;;16.28;100.00;101986.81;5073527;28;20515;-50
2022/10/29 10:49:28;;;;;;;42.63;39.73;;;;;;;16.09;100.00;101986.75;5073663;28;20523;-52
2022/10/29 10:51:59;;;;;;;44.27;40.43;;;;;;;16.01;100.00;101974.31;5074131;28;20446;-50
2022/10/29 10:54:31;;;;;;;43.57;40.57;;;;;;;15.96;100.00;101966.84;5074044;28;20426;-47
2022/10/29 10:57:01;;;;;;;46.70;43.30;;;;;;;15.85;100.00;101972.81;5073311;28;20545;-48
2022/10/29 10:59:40;;;;;;;45.00;41.80;;;;;;;15.77;100.00;101985.63;5073536;28;20427;-47
2022/10/29 11:02:20;;;;;;;42.93;39.80;;;;;;;15.77;100.00;101982.94;5073892;28;20491;-51
2022/10/29 11:04:54;;;;;;;42.80;40.00;;;;;;;15.69;100.00;101975.03;5073395;28;20993;-46
2022/10/29 11:07:27;;;;;;;42.47;39.60;;;;;;;15.67;100.00;101971.72;5073357;28;20538;-49
2022/10/29 11:09:55;;;;;;;45.73;42.50;;;;;;;15.68;100.00;101974.19;5073520;28;20966;-49
2022/10/29 11:12:31;;;;;;;46.90;43.60;;;;;;;15.66;100.00;101973.56;5073237;28;20439;-46
2022/10/29 11:15:04;;;;;;;47.67;44.00;;;;;;;15.74;100.00;101978.75;5073950;28;20834;-49
2022/10/29 11:17:39;;;;;;;45.63;42.43;;;;;;;15.90;100.00;101977.59;5072712;28;20512;-53
2022/10/29 11:20:18;;;;;;;46.57;42.87;;;;;;;16.06;100.00;101977.25;5069840;28;20423;-47